Terminal Aerodrome Forecast
Issued by NWS

Home | Current Version | Previous Version | Text Only | Print | Product List | Glossary Off
Versions: 1 2 3 4 5 6 7 8 9 10 11 12 13 14 15 16 17 18 19 20

000
FTUS43 KLSX 251400 AAA
TAFSUS
TAF AMD
KSUS 251405Z 2514/2612 23012G18KT P6SM SCT030 SCT200
     FM252100 17008KT P6SM BKN250
     FM260900 17008KT 6SM -SHRA VCTS BKN020CB=

USA.gov is the U.S. government's official web portal to all federal, state and local government web resources and services.